Time;durP1;ratioP1;P1;durP2;ratioP2;P2;SDS_P1;SDS_P2;PMS_P1;PMS_P2;Temp;Humidity;BMP_temperature;BMP_pressure;BME280_temperature;BME280_humidity;BME280_pressure;Samples;Min_cycle;Max_cycle;Signal;HPM_P1;HPM_P2
2021/01/27 00:01:01;;;;;;;3.60;3.00;;;5.40;59.70;;;;;;6184294;23;20441;-75
2021/01/27 00:03:27;;;;;;;3.53;3.30;;;5.40;59.70;;;;;;6184284;23;20969;-75
2021/01/27 00:05:54;;;;;;;3.73;3.43;;;5.40;59.80;;;;;;6184276;23;20459;-75
2021/01/27 00:08:22;;;;;;;3.83;3.33;;;5.40;59.70;;;;;;6184247;23;20958;-75
2021/01/27 00:10:49;;;;;;;3.57;3.27;;;5.50;59.60;;;;;;6184445;23;20419;-75
2021/01/27 00:13:19;;;;;;;3.87;3.57;;;5.50;59.50;;;;;;6183754;23;20420;-76
2021/01/27 00:15:46;;;;;;;4.10;3.43;;;5.60;59.60;;;;;;6182122;23;20503;-75
2021/01/27 00:18:17;;;;;;;4.47;3.13;;;5.60;59.50;;;;;;6183963;23;20429;-76
2021/01/27 00:20:44;;;;;;;4.10;3.53;;;5.70;59.40;;;;;;6184297;23;20418;-75
2021/01/27 00:23:11;;;;;;;4.90;4.10;;;5.70;59.30;;;;;;6184119;23;20509;-76
2021/01/27 00:25:38;;;;;;;5.90;4.20;;;5.80;59.10;;;;;;6183806;23;20419;-76
2021/01/27 00:28:06;;;;;;;5.07;3.87;;;5.80;58.70;;;;;;6183970;23;20435;-76
2021/01/27 00:30:34;;;;;;;3.87;3.53;;;5.80;58.90;;;;;;6184186;23;20933;-76
2021/01/27 00:33:02;;;;;;;4.20;3.90;;;5.90;59.00;;;;;;6183939;23;20420;-76
2021/01/27 00:35:32;;;;;;;4.87;3.63;;;5.90;58.60;;;;;;6183981;23;20416;-76
2021/01/27 00:38:00;;;;;;;5.47;3.83;;;5.80;58.50;;;;;;6184379;23;20420;-76
2021/01/27 00:40:27;;;;;;;4.17;3.73;;;5.80;58.40;;;;;;6181769;23;20823;-76
2021/01/27 00:42:54;;;;;;;4.47;4.10;;;5.80;58.30;;;;;;6183931;23;20786;-76
2021/01/27 00:45:21;;;;;;;4.90;3.87;;;5.80;58.50;;;;;;6184311;23;20420;-76
2021/01/27 00:47:47;;;;;;;6.33;3.83;;;5.70;59.20;;;;;;6183910;23;20914;-76
2021/01/27 00:50:15;;;;;;;5.67;3.57;;;5.60;58.70;;;;;;6184136;23;20427;-76
2021/01/27 00:52:43;;;;;;;9.73;4.67;;;5.60;58.80;;;;;;6184014;23;20410;-75
2021/01/27 00:55:12;;;;;;;4.67;4.17;;;5.50;58.80;;;;;;6183816;23;20409;-75
2021/01/27 00:57:39;;;;;;;4.47;4.00;;;5.50;58.90;;;;;;6183995;23;20738;-74
2021/01/27 01:00:13;;;;;;;4.10;3.60;;;5.60;59.00;;;;;;6183743;23;20406;-75
2021/01/27 01:02:40;;;;;;;4.73;4.30;;;5.60;59.10;;;;;;6183706;23;20454;-75
2021/01/27 01:05:10;;;;;;;5.20;3.50;;;5.60;59.00;;;;;;6184004;23;20416;-74
2021/01/27 01:07:37;;;;;;;4.90;3.80;;;5.60;59.20;;;;;;6181538;23;20417;-74
2021/01/27 01:10:06;;;;;;;4.73;4.00;;;5.60;59.20;;;;;;6183775;23;20423;-75
2021/01/27 01:12:33;;;;;;;4.97;3.63;;;5.60;59.20;;;;;;6183815;23;20422;-75
2021/01/27 01:15:00;;;;;;;5.07;4.57;;;5.50;59.20;;;;;;6183676;23;20428;-75
2021/01/27 01:17:27;;;;;;;7.73;4.97;;;5.60;59.40;;;;;;6183465;23;20412;-75
2021/01/27 01:19:53;;;;;;;5.97;5.40;;;5.60;59.40;;;;;;6183768;23;20914;-75
2021/01/27 01:22:20;;;;;;;5.63;4.80;;;5.60;59.40;;;;;;6183057;23;20449;-75
2021/01/27 01:24:46;;;;;;;7.80;5.60;;;5.70;59.60;;;;;;6183597;23;20471;-75
2021/01/27 01:27:14;;;;;;;5.10;4.60;;;5.70;59.40;;;;;;6183179;23;20426;-75
2021/01/27 01:29:40;;;;;;;5.93;5.07;;;5.70;59.60;;;;;;6183707;23;20427;-75
2021/01/27 01:32:07;;;;;;;5.77;4.87;;;5.70;59.50;;;;;;6183574;23;20416;-75
2021/01/27 01:34:34;;;;;;;5.37;4.87;;;5.70;59.60;;;;;;6181444;23;20416;-76
2021/01/27 01:37:00;;;;;;;7.80;5.90;;;5.60;59.60;;;;;;6183688;23;20415;-76
2021/01/27 01:39:27;;;;;;;5.80;5.30;;;5.60;59.70;;;;;;6183807;23;20416;-76
2021/01/27 01:41:54;;;;;;;7.90;4.70;;;5.60;59.90;;;;;;6183283;23;20467;-76
2021/01/27 01:44:22;;;;;;;5.23;4.73;;;5.60;59.90;;;;;;6183183;23;20480;-76
2021/01/27 01:46:48;;;;;;;5.77;5.20;;;5.60;60.00;;;;;;6183955;23;20418;-76
2021/01/27 01:49:15;;;;;;;6.83;6.13;;;5.60;60.00;;;;;;6183740;23;20428;-75
2021/01/27 01:51:46;;;;;;;5.30;4.80;;;5.60;60.20;;;;;;6183568;23;20416;-75
2021/01/27 01:54:19;;;;;;;6.07;5.40;;;5.60;60.30;;;;;;6183744;23;20924;-76
2021/01/27 01:56:51;;;;;;;6.10;4.93;;;5.60;60.30;;;;;;6183716;23;20728;-76
2021/01/27 01:59:18;;;;;;;5.77;4.83;;;5.60;61.20;;;;;;6183655;23;20422;-75
2021/01/27 02:01:50;;;;;;;5.37;4.90;;;5.60;60.50;;;;;;6181614;23;20417;-75
2021/01/27 02:04:18;;;;;;;6.20;5.33;;;5.60;60.50;;;;;;6183479;23;20462;-75
2021/01/27 02:06:44;;;;;;;8.43;6.13;;;5.60;60.50;;;;;;6183329;23;21106;-76
2021/01/27 02:09:11;;;;;;;6.70;5.47;;;5.60;60.50;;;;;;6184010;23;20440;-77
2021/01/27 02:11:57;;;;;;;6.80;5.23;;;5.60;60.30;;;;;;6183662;23;20404;-76
2021/01/27 02:14:36;;;;;;;8.17;5.30;;;5.60;60.10;;;;;;6183200;23;20416;-76
2021/01/27 02:17:09;;;;;;;5.60;5.10;;;5.60;60.00;;;;;;6183872;23;20413;-77
2021/01/27 02:20:19;;;;;;;5.20;4.70;;;5.60;59.80;;;;;;6183458;23;20395;-76
2021/01/27 02:23:33;;;;;;;5.53;4.50;;;5.60;59.80;;;;;;6063479;23;20454;-77
2021/01/27 02:26:19;;;;;;;8.57;5.47;;;5.60;60.00;;;;;;6183371;23;20736;-76
2021/01/27 02:29:09;;;;;;;5.87;5.13;;;5.50;60.00;;;;;;6181518;23;20420;-76
2021/01/27 02:31:41;;;;;;;7.20;5.63;;;5.50;59.90;;;;;;6183563;23;20435;-76
2021/01/27 02:34:39;;;;;;;5.67;4.37;;;5.50;59.80;;;;;;6183557;23;20412;-76
2021/01/27 02:37:10;;;;;;;5.30;4.80;;;5.50;59.90;;;;;;6183657;23;20490;-75
2021/01/27 02:39:44;;;;;;;6.47;5.37;;;5.50;60.00;;;;;;6185544;23;20943;-76
2021/01/27 02:42:18;;;;;;;5.57;5.07;;;5.50;59.90;;;;;;6185406;23;20910;-76
2021/01/27 02:44:49;;;;;;;5.90;4.20;;;5.50;60.00;;;;;;6185588;23;20419;-76
2021/01/27 02:47:22;;;;;;;5.23;4.73;;;5.50;60.00;;;;;;6185438;23;20421;-76
2021/01/27 02:49:54;;;;;;;5.10;4.63;;;5.40;60.00;;;;;;6185425;23;20410;-76
2021/01/27 02:52:23;;;;;;;5.60;4.97;;;5.40;60.10;;;;;;6185271;23;20420;-76
2021/01/27 02:54:56;;;;;;;10.73;5.40;;;5.40;60.20;;;;;;6183075;23;20996;-76
2021/01/27 02:57:26;;;;;;;6.70;5.13;;;5.40;60.30;;;;;;6184976;23;20416;-76
2021/01/27 02:59:58;;;;;;;5.10;4.70;;;5.40;60.40;;;;;;6185180;23;20410;-77
2021/01/27 03:02:31;;;;;;;5.03;4.60;;;5.40;60.60;;;;;;6184933;23;20444;-76
2021/01/27 03:05:05;;;;;;;8.00;6.20;;;5.40;60.70;;;;;;6185367;23;20406;-76
2021/01/27 03:07:34;;;;;;;8.20;5.13;;;5.40;60.90;;;;;;6185322;23;20418;-77
2021/01/27 03:10:07;;;;;;;9.80;4.90;;;5.40;60.50;;;;;;6185171;23;20442;-77
2021/01/27 03:12:33;;;;;;;4.90;4.50;;;5.40;60.30;;;;;;6185260;23;20415;-76
2021/01/27 03:15:00;;;;;;;5.57;4.73;;;5.50;60.40;;;;;;6185252;23;20444;-76
2021/01/27 03:17:30;;;;;;;4.67;4.20;;;5.50;60.40;;;;;;6184923;23;20410;-76
2021/01/27 03:20:01;;;;;;;4.93;4.53;;;5.50;60.20;;;;;;6185146;23;20835;-76
2021/01/27 03:22:34;;;;;;;5.03;4.30;;;5.50;60.30;;;;;;6182990;23;20443;-76
2021/01/27 03:25:06;;;;;;;5.27;4.87;;;5.50;60.50;;;;;;6185301;23;20415;-76
2021/01/27 03:27:44;;;;;;;4.90;4.50;;;5.50;60.60;;;;;;6184857;23;20410;-76
2021/01/27 03:30:13;;;;;;;6.00;5.00;;;5.50;60.60;;;;;;6185113;23;20423;-75
2021/01/27 03:32:45;;;;;;;5.43;4.63;;;5.50;60.60;;;;;;6184023;23;20458;-75
2021/01/27 03:35:17;;;;;;;6.40;5.10;;;5.50;60.40;;;;;;6184590;23;20977;-75
2021/01/27 03:37:48;;;;;;;5.03;4.60;;;5.50;60.40;;;;;;6185192;23;20479;-75
2021/01/27 03:40:18;;;;;;;6.93;5.23;;;5.50;60.40;;;;;;6184673;23;20736;-75
2021/01/27 03:42:51;;;;;;;4.70;3.67;;;5.50;60.40;;;;;;6184659;23;20448;-75
2021/01/27 03:45:21;;;;;;;6.87;5.10;;;5.50;60.20;;;;;;6184843;23;20416;-75
2021/01/27 03:47:54;;;;;;;5.27;4.73;;;5.50;60.20;;;;;;6182172;23;20741;-75
2021/01/27 03:50:25;;;;;;;5.00;4.60;;;5.50;60.20;;;;;;6184613;23;20417;-75
2021/01/27 03:52:56;;;;;;;6.07;5.50;;;5.50;60.20;;;;;;6184922;23;20443;-75
2021/01/27 03:55:28;;;;;;;4.40;3.73;;;5.50;60.10;;;;;;6185147;23;20806;-75
2021/01/27 03:58:02;;;;;;;5.30;4.67;;;5.50;60.40;;;;;;6184967;23;20413;-76
2021/01/27 04:00:31;;;;;;;6.43;5.87;;;5.50;60.40;;;;;;6184861;23;20408;-75
2021/01/27 04:03:08;;;;;;;6.63;5.20;;;5.50;60.40;;;;;;6184229;23;20454;-76
2021/01/27 04:05:36;;;;;;;6.50;5.03;;;5.50;60.70;;;;;;6184444;23;20406;-76
2021/01/27 04:08:03;;;;;;;5.50;5.00;;;5.50;60.90;;;;;;6184649;23;20438;-76
2021/01/27 04:10:30;;;;;;;6.83;4.97;;;5.60;61.00;;;;;;6185015;23;20910;-76
2021/01/27 04:12:57;;;;;;;4.87;4.47;;;5.60;61.00;;;;;;6184389;23;20928;-76
2021/01/27 04:15:23;;;;;;;5.30;4.40;;;5.60;60.80;;;;;;6182232;23;20427;-76
2021/01/27 04:17:50;;;;;;;5.50;4.53;;;5.60;60.80;;;;;;6184640;23;20465;-76
2021/01/27 04:20:16;;;;;;;6.10;5.60;;;5.60;60.80;;;;;;6184608;23;20487;-76
2021/01/27 04:22:44;;;;;;;6.17;4.70;;;5.60;60.70;;;;;;6184390;23;20456;-76
2021/01/27 04:25:12;;;;;;;4.53;4.13;;;5.70;60.60;;;;;;6184215;23;20964;-77
2021/01/27 04:27:38;;;;;;;4.93;4.43;;;5.60;60.50;;;;;;6184675;23;20413;-76
2021/01/27 04:30:07;;;;;;;6.10;4.80;;;5.60;60.50;;;;;;6184109;23;20931;-75
2021/01/27 04:32:33;;;;;;;5.53;5.03;;;5.60;60.50;;;;;;6184140;23;20479;-75
2021/01/27 04:35:00;;;;;;;5.90;4.47;;;5.60;60.40;;;;;;6184523;23;20404;-75
2021/01/27 04:37:26;;;;;;;5.17;4.47;;;5.70;60.60;;;;;;6183836;23;20413;-75
2021/01/27 04:39:54;;;;;;;4.77;4.37;;;5.70;60.40;;;;;;6184583;23;20418;-76
2021/01/27 04:42:27;;;;;;;7.53;4.80;;;5.70;60.20;;;;;;6182247;23;20452;-75
2021/01/27 04:44:56;;;;;;;5.83;4.23;;;5.70;60.30;;;;;;6184270;23;20428;-75
2021/01/27 04:47:28;;;;;;;5.90;5.20;;;5.70;60.40;;;;;;6184064;23;20435;-75
2021/01/27 04:50:01;;;;;;;5.27;4.73;;;5.70;60.50;;;;;;6183899;23;20409;-77
2021/01/27 04:52:50;;;;;;;4.60;4.20;;;5.70;60.60;;;;;;6184350;23;20440;-77
2021/01/27 04:55:29;;;;;;;7.07;5.03;;;5.80;60.70;;;;;;6183834;23;20401;-77
2021/01/27 04:58:11;;;;;;;5.00;4.60;;;5.80;60.60;;;;;;6184200;23;20412;-76
2021/01/27 05:00:45;;;;;;;4.87;4.43;;;5.80;60.40;;;;;;6184674;23;20961;-77
2021/01/27 05:03:28;;;;;;;3.97;3.60;;;5.90;60.40;;;;;;6183651;23;20487;-77
2021/01/27 05:06:00;;;;;;;4.73;4.30;;;5.90;59.90;;;;;;6183878;23;20413;-77
2021/01/27 05:08:31;;;;;;;6.13;4.20;;;5.90;59.70;;;;;;6181719;23;20433;-77
2021/01/27 05:11:03;;;;;;;6.50;4.43;;;5.90;59.60;;;;;;6184121;23;20417;-76
2021/01/27 05:13:33;;;;;;;5.30;3.90;;;6.00;59.30;;;;;;6184224;23;20728;-76
2021/01/27 05:16:02;;;;;;;5.10;3.63;;;5.90;59.20;;;;;;6184052;23;20502;-76
2021/01/27 05:18:29;;;;;;;4.83;3.87;;;5.90;59.10;;;;;;6184071;23;20411;-77
2021/01/27 05:20:56;;;;;;;7.17;4.43;;;5.90;58.80;;;;;;6184226;23;20469;-77
2021/01/27 05:23:22;;;;;;;7.50;3.90;;;5.90;58.40;;;;;;6184218;23;20770;-77
2021/01/27 05:25:59;;;;;;;4.10;3.63;;;5.90;58.70;;;;;;6183949;23;20418;-77
2021/01/27 05:28:32;;;;;;;5.70;4.50;;;5.90;58.60;;;;;;6183731;23;20460;-77
2021/01/27 05:30:58;;;;;;;4.77;3.60;;;5.90;58.70;;;;;;6184105;23;20410;-76
2021/01/27 05:33:47;;;;;;;3.77;3.47;;;5.90;58.50;;;;;;6183084;23;20414;-77
2021/01/27 05:36:17;;;;;;;3.00;2.80;;;5.90;58.40;;;;;;6182481;23;20739;-77
2021/01/27 05:38:44;;;;;;;4.27;3.50;;;5.90;58.30;;;;;;6183784;23;20489;-76
2021/01/27 05:41:19;;;;;;;7.10;3.63;;;5.90;58.00;;;;;;6183806;23;20410;-74
2021/01/27 05:43:48;;;;;;;4.13;2.80;;;5.80;57.70;;;;;;6183477;23;20451;-76
2021/01/27 05:46:17;;;;;;;3.27;3.00;;;5.80;57.70;;;;;;6183445;23;20422;-76
2021/01/27 05:48:48;;;;;;;3.20;2.90;;;5.70;57.70;;;;;;6183448;23;20414;-74
2021/01/27 05:51:27;;;;;;;4.90;3.90;;;5.70;57.60;;;;;;6183413;23;21320;-77
2021/01/27 05:53:53;;;;;;;3.90;3.20;;;5.70;57.60;;;;;;6183972;23;20504;-76
2021/01/27 05:56:21;;;;;;;4.20;3.13;;;5.70;57.70;;;;;;6182844;23;20931;-77
2021/01/27 05:58:58;;;;;;;3.13;2.80;;;5.70;57.70;;;;;;6183578;23;20434;-76
2021/01/27 06:01:43;;;;;;;3.63;3.33;;;5.70;57.50;;;;;;6181118;23;20412;-76
2021/01/27 06:04:22;;;;;;;3.57;3.23;;;5.70;57.50;;;;;;6182952;23;20996;-77
2021/01/27 06:06:59;;;;;;;4.97;3.30;;;5.70;57.60;;;;;;6183633;23;20412;-76
2021/01/27 06:09:40;;;;;;;4.23;3.53;;;5.70;57.80;;;;;;6183130;23;20976;-77
2021/01/27 06:12:11;;;;;;;3.83;3.00;;;5.70;57.70;;;;;;6184251;23;20428;-76
2021/01/27 06:14:38;;;;;;;6.47;3.30;;;5.70;57.50;;;;;;6186032;23;20786;-76
2021/01/27 06:17:23;;;;;;;3.67;3.37;;;5.70;57.50;;;;;;6185298;23;20413;-76
2021/01/27 06:20:03;;;;;;;7.83;4.30;;;5.70;57.70;;;;;;6185778;23;20413;-76
2021/01/27 06:22:45;;;;;;;4.00;2.80;;;5.60;57.70;;;;;;6185613;23;20757;-77
2021/01/27 06:25:26;;;;;;;3.57;3.27;;;5.60;57.70;;;;;;6185473;23;20534;-76
2021/01/27 06:28:12;;;;;;;6.23;3.60;;;5.60;57.60;;;;;;6182790;23;20420;-77
2021/01/27 06:31:06;;;;;;;3.47;3.20;;;5.70;57.60;;;;;;6185144;23;20888;-76
2021/01/27 06:33:58;;;;;;;5.17;3.43;;;5.70;57.70;;;;;;6184601;23;20407;-76
2021/01/27 06:36:48;;;;;;;3.53;3.20;;;5.80;57.40;;;;;;6185803;23;20502;-77
2021/01/27 06:39:58;;;;;;;5.60;2.97;;;5.80;57.40;;;;;;6185440;23;20421;-76
2021/01/27 06:42:53;;;;;;;3.23;3.03;;;5.80;57.40;;;;;;6185609;23;20410;-76
2021/01/27 06:45:31;;;;;;;3.37;3.07;;;5.80;57.30;;;;;;6163071;23;20560;-76
2021/01/27 06:48:27;;;;;;;4.70;3.50;;;5.80;57.50;;;;;;6185463;23;20400;-76
2021/01/27 06:54:34;;;;;;;4.03;3.10;;;5.90;57.10;;;;;;6179371;23;20461;-76
2021/01/27 06:57:18;;;;;;;4.13;3.83;;;5.90;57.00;;;;;;6183817;23;20437;-75
2021/01/27 07:00:05;;;;;;;4.50;3.80;;;5.90;57.20;;;;;;6185503;23;20415;-77
2021/01/27 07:03:22;;;;;;;5.70;4.13;;;5.90;57.10;;;;;;6184288;23;20406;-76
2021/01/27 07:06:29;;;;;;;4.63;3.10;;;6.00;57.40;;;;;;6184600;23;20416;-78
2021/01/27 07:09:41;;;;;;;4.23;3.13;;;6.00;57.80;;;;;;6066455;23;20501;-76
2021/01/27 07:12:23;;;;;;;4.53;3.63;;;6.00;56.90;;;;;;6114481;23;20411;-75
2021/01/27 07:15:35;;;;;;;6.83;4.13;;;6.10;56.90;;;;;;6185264;23;20410;-80
2021/01/27 07:18:39;;;;;;;5.67;3.80;;;6.10;56.80;;;;;;6148466;23;20538;-75
2021/01/27 07:21:14;;;;;;;4.07;3.13;;;6.10;56.90;;;;;;6184938;23;20460;-75
2021/01/27 07:23:48;;;;;;;6.60;4.60;;;6.10;57.00;;;;;;6182407;23;20484;-74
2021/01/27 07:26:21;;;;;;;6.43;4.33;;;6.20;57.00;;;;;;6185392;23;20441;-75
2021/01/27 07:28:56;;;;;;;6.03;3.83;;;6.20;56.80;;;;;;6184612;23;20715;-75
2021/01/27 07:31:27;;;;;;;3.93;3.33;;;6.20;56.70;;;;;;6185355;23;20421;-75
2021/01/27 07:34:01;;;;;;;6.63;3.30;;;6.20;56.70;;;;;;6184316;23;20475;-75
2021/01/27 07:36:46;;;;;;;3.50;3.20;;;6.30;56.70;;;;;;6184364;23;20931;-74
2021/01/27 07:39:18;;;;;;;4.00;3.17;;;6.30;56.40;;;;;;6186010;23;20414;-74
2021/01/27 07:42:03;;;;;;;9.30;3.70;;;6.30;56.50;;;;;;6185000;23;20418;-80
2021/01/27 07:44:31;;;;;;;3.07;2.77;;;6.40;56.50;;;;;;6185651;23;20499;-75
2021/01/27 07:47:05;;;;;;;4.27;3.80;;;6.30;56.10;;;;;;6185761;23;20411;-74
2021/01/27 07:49:42;;;;;;;8.60;2.90;;;6.30;56.30;;;;;;6182600;23;20413;-74
2021/01/27 07:52:22;;;;;;;4.07;3.70;;;6.30;56.70;;;;;;6185712;23;20410;-74
2021/01/27 07:54:55;;;;;;;7.93;3.80;;;6.30;57.00;;;;;;6184697;23;20419;-74
2021/01/27 07:57:33;;;;;;;2.90;2.60;;;6.20;57.40;;;;;;6185525;23;20424;-74
2021/01/27 08:00:09;;;;;;;3.50;3.20;;;6.20;58.00;;;;;;6182532;23;20414;-75
2021/01/27 08:02:44;;;;;;;4.70;3.57;;;6.20;58.60;;;;;;6180031;23;21037;-74
2021/01/27 08:05:12;;;;;;;3.63;3.33;;;6.20;58.80;;;;;;6181899;23;20420;-74
2021/01/27 08:07:42;;;;;;;3.73;3.40;;;6.20;59.20;;;;;;6182327;23;20421;-73
2021/01/27 08:10:15;;;;;;;9.73;3.67;;;6.20;59.60;;;;;;6182548;23;20421;-73
2021/01/27 08:12:44;;;;;;;3.93;2.93;;;6.30;59.90;;;;;;6181936;23;20765;-74
2021/01/27 08:15:15;;;;;;;3.37;3.07;;;6.30;59.80;;;;;;6181520;23;20440;-73
2021/01/27 08:18:12;;;;;;;4.40;3.30;;;6.30;59.90;;;;;;6179116;23;20425;-73
2021/01/27 08:20:42;;;;;;;12.10;3.30;;;6.30;60.40;;;;;;6183354;23;20449;-73
2021/01/27 08:23:30;;;;;;;5.37;3.30;;;6.30;60.80;;;;;;6181151;23;20986;-74
2021/01/27 08:25:58;;;;;;;3.57;3.27;;;6.20;60.80;;;;;;6182450;23;20736;-73
2021/01/27 08:28:41;;;;;;;3.70;3.40;;;6.20;61.20;;;;;;6181663;23;20794;-73
2021/01/27 08:31:22;;;;;;;3.67;3.10;;;6.20;61.60;;;;;;6183156;23;20401;-73
2021/01/27 08:33:56;;;;;;;4.10;3.50;;;6.30;61.80;;;;;;6182225;23;20469;-73
2021/01/27 08:37:02;;;;;;;7.50;2.80;;;6.30;61.80;;;;;;6185271;23;20417;-73
2021/01/27 08:39:30;;;;;;;3.83;3.10;;;6.20;61.90;;;;;;6185453;23;20420;-73
2021/01/27 08:42:00;;;;;;;5.10;3.70;;;6.30;62.40;;;;;;6185605;23;20444;-74
2021/01/27 08:44:33;;;;;;;2.77;2.60;;;6.20;62.60;;;;;;6183135;23;20448;-74
2021/01/27 08:47:02;;;;;;;4.33;3.70;;;6.30;62.90;;;;;;6185103;23;20762;-73
2021/01/27 08:49:48;;;;;;;3.73;3.20;;;6.30;63.10;;;;;;6184680;23;20931;-74
2021/01/27 08:52:40;;;;;;;3.30;3.07;;;6.30;63.50;;;;;;6184501;23;20906;-74
2021/01/27 08:55:34;;;;;;;6.27;3.40;;;6.20;64.00;;;;;;6185502;23;20409;-74
2021/01/27 08:58:27;;;;;;;2.87;2.67;;;6.20;64.30;;;;;;6184735;23;20420;-73
2021/01/27 09:00:56;;;;;;;4.63;2.93;;;6.20;64.00;;;;;;6185058;23;20800;-74
2021/01/27 09:03:53;;;;;;;4.03;3.03;;;6.20;64.20;;;;;;6184510;23;20461;-74
2021/01/27 09:06:28;;;;;;;3.80;3.33;;;6.20;64.90;;;;;;6184084;23;20465;-74
2021/01/27 09:09:07;;;;;;;2.87;2.60;;;6.20;65.00;;;;;;6185339;23;21001;-73
2021/01/27 09:11:35;;;;;;;4.73;2.80;;;6.10;65.00;;;;;;6182125;23;20414;-73
2021/01/27 09:14:05;;;;;;;6.73;3.67;;;6.10;65.20;;;;;;6184090;23;20414;-73
2021/01/27 09:16:32;;;;;;;4.97;3.60;;;6.10;65.50;;;;;;6185305;23;20409;-73
2021/01/27 09:19:02;;;;;;;6.13;2.70;;;6.10;65.80;;;;;;6184865;23;20471;-73
2021/01/27 09:21:31;;;;;;;3.97;3.10;;;6.10;65.20;;;;;;6184931;23;20437;-74
2021/01/27 09:24:02;;;;;;;3.50;3.20;;;6.00;65.90;;;;;;6184680;23;20485;-74
2021/01/27 09:26:40;;;;;;;7.27;5.00;;;5.90;66.30;;;;;;6184513;23;20421;-73
2021/01/27 09:29:13;;;;;;;14.47;5.00;;;5.80;66.70;;;;;;6184823;23;20455;-73
2021/01/27 09:31:39;;;;;;;5.43;4.00;;;5.70;67.30;;;;;;6185117;23;20414;-74
2021/01/27 09:34:17;;;;;;;4.50;3.67;;;5.60;67.50;;;;;;6184071;23;20409;-74
2021/01/27 09:36:44;;;;;;;4.80;4.07;;;5.60;68.20;;;;;;6184654;23;20414;-74
2021/01/27 09:39:12;;;;;;;17.40;5.13;;;5.50;68.50;;;;;;6182569;23;20417;-74
2021/01/27 09:41:43;;;;;;;7.37;5.10;;;5.50;69.30;;;;;;6184115;23;20435;-75
2021/01/27 09:44:24;;;;;;;5.10;4.10;;;5.50;69.70;;;;;;6184938;23;20487;-74
2021/01/27 09:46:51;;;;;;;6.13;4.93;;;5.50;69.70;;;;;;6184063;23;20416;-74
2021/01/27 09:49:18;;;;;;;6.00;3.70;;;5.50;69.60;;;;;;6183149;23;20910;-73
2021/01/27 09:51:53;;;;;;;5.83;4.13;;;5.50;69.80;;;;;;6184080;23;20462;-73
2021/01/27 09:54:21;;;;;;;6.33;4.63;;;5.50;69.80;;;;;;6181362;23;20787;-73
2021/01/27 09:56:55;;;;;;;5.00;4.60;;;5.40;69.80;;;;;;6184318;23;20412;-73
2021/01/27 09:59:22;;;;;;;8.80;4.20;;;5.50;70.30;;;;;;6184256;23;20415;-73
2021/01/27 10:01:49;;;;;;;6.00;3.53;;;5.50;70.30;;;;;;6184028;23;20414;-73
2021/01/27 10:04:29;;;;;;;4.37;3.97;;;5.50;70.40;;;;;;6182759;23;20455;-74
2021/01/27 10:07:06;;;;;;;3.87;3.40;;;5.50;70.40;;;;;;6182800;23;20812;-73
2021/01/27 10:09:39;;;;;;;4.03;3.63;;;5.60;70.50;;;;;;6183324;23;20440;-74
2021/01/27 10:12:11;;;;;;;6.80;4.23;;;5.60;70.30;;;;;;6184948;23;20451;-74
2021/01/27 10:14:41;;;;;;;6.00;4.07;;;5.50;70.20;;;;;;6184332;23;20416;-73
2021/01/27 10:17:10;;;;;;;4.73;3.53;;;5.50;70.20;;;;;;6182966;23;20443;-73
2021/01/27 10:19:41;;;;;;;6.90;3.13;;;5.50;70.70;;;;;;6184223;23;20923;-73
2021/01/27 10:22:07;;;;;;;6.60;3.40;;;5.60;70.90;;;;;;6183736;23;20418;-74
2021/01/27 10:24:47;;;;;;;9.50;4.40;;;5.60;70.80;;;;;;6183144;23;20967;-73
2021/01/27 10:27:23;;;;;;;5.50;3.73;;;5.70;71.20;;;;;;6181344;23;21199;-75
2021/01/27 10:29:50;;;;;;;13.43;4.93;;;5.70;70.80;;;;;;6180933;23;20494;-73
2021/01/27 10:32:21;;;;;;;4.83;3.33;;;5.80;70.90;;;;;;6178708;23;20937;-73
2021/01/27 10:34:49;;;;;;;5.40;3.57;;;5.80;70.90;;;;;;6181628;23;20489;-74
2021/01/27 10:37:28;;;;;;;4.87;3.77;;;5.90;70.80;;;;;;6184392;23;20437;-72
2021/01/27 10:40:16;;;;;;;9.93;3.50;;;5.90;70.50;;;;;;6184222;23;20408;-73
2021/01/27 10:42:45;;;;;;;5.40;3.27;;;5.90;70.20;;;;;;6183409;23;20405;-73
2021/01/27 10:45:16;;;;;;;3.70;3.40;;;5.90;70.20;;;;;;6183621;23;20451;-73
2021/01/27 10:47:45;;;;;;;4.83;3.63;;;6.00;70.30;;;;;;6182166;23;20422;-73
2021/01/27 10:50:12;;;;;;;4.07;3.67;;;6.00;69.80;;;;;;6183965;23;20729;-73
2021/01/27 10:52:39;;;;;;;4.80;3.50;;;6.00;69.80;;;;;;6184464;23;20464;-72
2021/01/27 10:55:11;;;;;;;4.43;3.47;;;6.00;70.00;;;;;;6184341;23;20791;-72
2021/01/27 10:57:38;;;;;;;6.30;3.83;;;6.00;70.00;;;;;;6184548;23;20412;-73
2021/01/27 11:00:09;;;;;;;4.33;3.40;;;6.00;69.80;;;;;;6184231;23;20551;-72
2021/01/27 11:02:35;;;;;;;5.53;3.23;;;6.00;69.40;;;;;;6186850;23;20725;-72
2021/01/27 11:05:02;;;;;;;4.50;3.03;;;5.90;69.60;;;;;;6186617;23;20517;-73
2021/01/27 11:07:29;;;;;;;6.10;2.83;;;5.80;69.70;;;;;;6184500;23;20448;-73
2021/01/27 11:09:59;;;;;;;9.90;4.13;;;5.70;69.30;;;;;;6184772;23;20451;-73
2021/01/27 11:12:32;;;;;;;3.33;2.40;;;5.60;69.70;;;;;;6185575;23;20421;-73
2021/01/27 11:15:13;;;;;;;5.93;2.60;;;5.50;70.50;;;;;;6186028;23;20466;-73
2021/01/27 11:17:48;;;;;;;2.57;2.37;;;5.40;71.40;;;;;;6185378;23;20428;-74
2021/01/27 11:20:23;;;;;;;4.43;3.33;;;5.40;71.40;;;;;;6186090;23;20419;-73
2021/01/27 11:23:33;;;;;;;5.00;3.00;;;5.30;71.60;;;;;;6186704;23;20811;-73
2021/01/27 11:26:00;;;;;;;2.60;2.50;;;5.30;71.70;;;;;;6185442;23;20414;-72
2021/01/27 11:28:27;;;;;;;4.57;2.80;;;5.30;72.50;;;;;;6183119;23;20756;-72
2021/01/27 11:31:01;;;;;;;2.50;2.30;;;5.30;72.80;;;;;;6185415;23;20771;-72
2021/01/27 11:33:28;;;;;;;2.63;2.43;;;5.30;72.50;;;;;;6185507;23;21076;-73
2021/01/27 11:35:58;;;;;;;2.97;2.60;;;5.40;72.90;;;;;;6185969;23;20451;-73
2021/01/27 11:38:26;;;;;;;4.40;3.03;;;5.40;73.80;;;;;;6186096;23;20413;-73
2021/01/27 11:40:54;;;;;;;3.00;2.80;;;5.50;73.10;;;;;;6186119;23;20427;-73
2021/01/27 11:43:21;;;;;;;2.60;2.40;;;5.70;73.60;;;;;;6186048;23;20468;-73
2021/01/27 11:45:48;;;;;;;3.10;2.80;;;5.80;72.90;;;;;;6186071;23;20420;-72
2021/01/27 11:48:16;;;;;;;3.50;3.07;;;5.80;72.40;;;;;;6186098;23;20426;-73
2021/01/27 11:50:44;;;;;;;3.10;2.80;;;5.90;72.50;;;;;;6185946;23;20817;-72
2021/01/27 11:53:11;;;;;;;3.13;2.30;;;6.00;72.00;;;;;;6186011;23;20881;-73
2021/01/27 11:55:39;;;;;;;4.83;2.90;;;6.00;70.80;;;;;;6183636;23;20420;-72
2021/01/27 11:58:19;;;;;;;2.27;1.70;;;6.10;70.40;;;;;;6185326;23;20410;-72
2021/01/27 12:00:45;;;;;;;2.50;2.30;;;6.10;70.20;;;;;;6186021;23;20451;-72
2021/01/27 12:03:12;;;;;;;2.10;1.90;;;6.10;69.70;;;;;;6185124;23;20414;-73
2021/01/27 12:05:39;;;;;;;2.30;2.03;;;6.10;69.30;;;;;;6185558;23;20417;-73
2021/01/27 12:08:07;;;;;;;2.30;2.10;;;6.10;69.50;;;;;;6185272;23;20441;-73
2021/01/27 12:10:33;;;;;;;2.70;2.30;;;6.10;69.00;;;;;;6184821;23;20417;-72
2021/01/27 12:13:00;;;;;;;2.97;2.00;;;6.10;68.90;;;;;;6185299;23;20416;-72
2021/01/27 12:15:26;;;;;;;2.83;2.57;;;6.10;69.70;;;;;;6184449;23;20460;-72
2021/01/27 12:17:53;;;;;;;1.97;1.87;;;6.20;70.10;;;;;;6182454;23;20420;-72
2021/01/27 12:20:20;;;;;;;2.43;2.20;;;6.20;70.10;;;;;;6181776;23;21082;-73
2021/01/27 12:22:47;;;;;;;2.53;2.33;;;6.30;69.60;;;;;;6180109;23;20416;-72
2021/01/27 12:25:15;;;;;;;1.70;1.47;;;6.30;69.30;;;;;;6181899;23;20454;-72
2021/01/27 12:27:41;;;;;;;2.77;2.13;;;6.20;68.20;;;;;;6181199;23;20729;-72
2021/01/27 12:30:11;;;;;;;5.80;2.60;;;6.20;68.80;;;;;;6181489;23;20486;-73
2021/01/27 12:32:38;;;;;;;2.47;2.13;;;6.40;69.40;;;;;;6182125;23;20414;-73
2021/01/27 12:35:06;;;;;;;3.97;3.00;;;6.50;69.30;;;;;;6183951;23;20884;-73
2021/01/27 12:37:33;;;;;;;15.90;2.90;;;6.60;69.10;;;;;;6181351;23;20412;-73
2021/01/27 12:39:59;;;;;;;2.30;2.10;;;6.70;68.80;;;;;;6181427;23;20943;-73
2021/01/27 12:42:27;;;;;;;2.90;2.13;;;6.70;68.10;;;;;;6181586;23;20422;-73
2021/01/27 12:44:54;;;;;;;2.00;1.73;;;6.70;68.10;;;;;;6182961;23;20572;-73
2021/01/27 12:47:22;;;;;;;5.30;2.97;;;6.60;68.00;;;;;;6185118;23;20410;-73
2021/01/27 12:49:49;;;;;;;4.97;2.10;;;6.50;67.90;;;;;;6182974;23;20752;-72
2021/01/27 12:52:15;;;;;;;2.07;1.80;;;6.50;68.30;;;;;;6185152;23;20405;-72
2021/01/27 12:54:42;;;;;;;5.53;2.73;;;6.50;68.80;;;;;;6185103;23;20421;-73
2021/01/27 12:57:09;;;;;;;1.83;1.70;;;6.50;69.30;;;;;;6184963;23;20414;-72
2021/01/27 12:59:37;;;;;;;2.40;2.20;;;6.50;68.70;;;;;;6184891;23;20418;-73
2021/01/27 13:02:04;;;;;;;1.93;1.80;;;6.50;68.60;;;;;;6184098;23;20414;-73
2021/01/27 13:04:30;;;;;;;4.73;3.40;;;6.50;69.30;;;;;;6184303;23;20789;-73
2021/01/27 13:06:57;;;;;;;2.17;2.00;;;6.50;69.20;;;;;;6184876;23;20416;-73
2021/01/27 13:09:24;;;;;;;2.53;2.30;;;6.50;69.30;;;;;;6185044;23;20497;-72
2021/01/27 13:11:51;;;;;;;2.63;2.43;;;6.50;69.80;;;;;;6185002;23;20413;-73
2021/01/27 13:14:19;;;;;;;2.70;2.43;;;6.50;70.20;;;;;;6184311;23;20402;-73
2021/01/27 13:16:47;;;;;;;3.97;2.60;;;6.40;69.80;;;;;;6182485;23;20442;-73
2021/01/27 13:19:14;;;;;;;3.37;2.10;;;6.30;70.40;;;;;;6184898;23;20488;-72
2021/01/27 13:21:41;;;;;;;3.73;2.53;;;6.30;70.80;;;;;;6183934;23;20442;-72
2021/01/27 13:24:08;;;;;;;2.63;2.43;;;6.40;71.20;;;;;;6183297;23;20457;-72
2021/01/27 13:26:34;;;;;;;4.50;2.73;;;6.50;71.30;;;;;;6184407;23;20464;-73
2021/01/27 13:29:01;;;;;;;3.53;2.40;;;6.60;70.80;;;;;;6184636;23;20745;-73
2021/01/27 13:31:27;;;;;;;2.93;2.70;;;6.60;70.80;;;;;;6183862;23;20411;-72